createdAt,value
2022-10-18T00:02:27.178Z,16.23
2022-10-18T00:04:55.459Z,17.08
2022-10-18T00:07:23.899Z,17.38
2022-10-18T00:09:51.819Z,18.35
2022-10-18T00:12:19.821Z,16.73
2022-10-18T00:14:50.966Z,17.38
2022-10-18T00:17:18.865Z,17.23
2022-10-18T00:19:54.089Z,18.30
2022-10-18T00:22:22.272Z,16.33
2022-10-18T00:24:50.312Z,17.20
2022-10-18T00:27:18.384Z,17.35
2022-10-18T00:29:58.114Z,18.00
2022-10-18T00:32:26.423Z,20.02
2022-10-18T00:34:54.306Z,20.20
2022-10-18T00:37:22.348Z,20.98
2022-10-18T00:39:50.288Z,20.50
2022-10-18T00:42:19.860Z,20.42
2022-10-18T00:44:51.610Z,17.27
2022-10-18T00:47:22.716Z,16.00
2022-10-18T00:49:53.261Z,16.92
2022-10-18T00:52:39.143Z,16.23
2022-10-18T00:55:08.642Z,14.90
2022-10-18T00:57:38.494Z,15.52
2022-10-18T01:00:10.113Z,14.63
2022-10-18T01:02:41.708Z,15.18
2022-10-18T01:05:12.380Z,14.32
2022-10-18T01:08:10.959Z,15.07
2022-10-18T01:13:35.961Z,13.40
2022-10-18T01:16:15.594Z,15.25
2022-10-18T01:18:54.978Z,15.07
2022-10-18T01:22:03.238Z,15.68
2022-10-18T01:24:55.992Z,14.77
2022-10-18T01:27:55.593Z,15.10
2022-10-18T01:30:42.680Z,14.40
2022-10-18T01:33:26.878Z,13.90
2022-10-18T01:36:02.078Z,14.32
2022-10-18T01:38:30.571Z,14.82
2022-10-18T01:40:58.471Z,14.20
2022-10-18T01:43:26.385Z,13.77
2022-10-18T01:45:55.300Z,13.95
2022-10-18T01:48:23.694Z,13.93
2022-10-18T01:50:52.396Z,13.45
2022-10-18T01:53:28.584Z,14.82
2022-10-18T01:58:47.810Z,11.95
2022-10-18T02:01:59.544Z,13.30
2022-10-18T02:04:49.243Z,13.93
2022-10-18T02:07:30.735Z,14.05
2022-10-18T02:10:10.808Z,13.40
2022-10-18T02:12:41.051Z,12.40
2022-10-18T02:15:10.132Z,13.40
2022-10-18T02:17:40.438Z,13.13
2022-10-18T02:20:12.171Z,11.80
2022-10-18T02:22:42.728Z,11.43
2022-10-18T02:25:11.482Z,12.82
2022-10-18T02:27:41.863Z,11.90
2022-10-18T02:30:10.192Z,12.07
2022-10-18T02:32:44.917Z,12.85
2022-10-18T02:35:39.897Z,13.02
2022-10-18T02:38:07.902Z,12.55
2022-10-18T02:40:35.814Z,12.70
2022-10-18T02:43:05.895Z,13.52
2022-10-18T02:45:33.829Z,13.25
2022-10-18T02:48:01.763Z,13.80
2022-10-18T02:50:29.877Z,12.52
2022-10-18T02:53:00.932Z,12.85
2022-10-18T02:57:57.242Z,12.85
2022-10-18T03:00:25.517Z,13.60
2022-10-18T03:02:54.186Z,15.43
2022-10-18T03:05:24.026Z,13.60
2022-10-18T03:07:53.687Z,14.73
2022-10-18T03:10:24.675Z,15.35
2022-10-18T03:12:53.121Z,18.83
2022-10-18T03:15:23.155Z,18.08
2022-10-18T03:17:51.024Z,27.52
2022-10-18T03:20:22.140Z,20.75
2022-10-18T03:22:50.293Z,19.60
2022-10-18T03:25:20.825Z,18.38
2022-10-18T03:27:49.904Z,17.17
2022-10-18T03:30:17.984Z,17.70
2022-10-18T03:32:47.123Z,16.40
2022-10-18T03:35:15.275Z,15.98
2022-10-18T03:37:44.079Z,16.65
2022-10-18T03:40:12.088Z,17.25
2022-10-18T03:42:39.923Z,17.80
2022-10-18T03:45:08.436Z,17.63
2022-10-18T03:47:37.840Z,21.02
2022-10-18T03:50:06.387Z,22.55
2022-10-18T03:52:36.179Z,25.48
2022-10-18T03:55:07.621Z,28.88
2022-10-18T03:57:36.111Z,29.73
2022-10-18T04:00:04.690Z,31.05
2022-10-18T04:02:41.492Z,31.38
2022-10-18T04:05:10.029Z,28.27
2022-10-18T04:07:40.894Z,26.90
2022-10-18T04:10:09.681Z,24.15
2022-10-18T04:12:42.800Z,26.40
2022-10-18T04:15:11.225Z,25.80
2022-10-18T04:17:39.448Z,22.05
2022-10-18T04:20:08.110Z,19.92
2022-10-18T04:22:36.892Z,17.88
2022-10-18T04:25:05.605Z,16.70
2022-10-18T04:27:33.901Z,17.88
2022-10-18T04:30:05.895Z,18.40
2022-10-18T04:32:35.631Z,18.25
2022-10-18T04:35:04.696Z,17.25
2022-10-18T04:37:33.840Z,15.75
2022-10-18T04:40:02.118Z,15.57
2022-10-18T04:42:30.325Z,15.50
2022-10-18T04:44:59.225Z,14.82
2022-10-18T04:47:27.614Z,15.68
2022-10-18T04:49:58.349Z,15.40
2022-10-18T04:52:26.579Z,18.95
2022-10-18T04:54:54.604Z,19.75
2022-10-18T04:57:23.067Z,13.68
2022-10-18T04:59:51.063Z,15.00
2022-10-18T05:02:19.706Z,14.30
2022-10-18T05:04:51.028Z,14.55
2022-10-18T05:07:19.177Z,14.07
2022-10-18T05:09:58.995Z,14.65
2022-10-18T05:12:29.598Z,12.80
2022-10-18T05:14:57.898Z,13.23
2022-10-18T05:17:26.379Z,12.77
2022-10-18T05:19:58.836Z,13.43
2022-10-18T05:22:26.910Z,13.02
2022-10-18T05:24:57.913Z,13.10
2022-10-18T05:27:26.205Z,12.77
2022-10-18T05:29:54.027Z,13.15
2022-10-18T05:32:22.713Z,13.20
2022-10-18T05:34:51.282Z,12.82
2022-10-18T05:37:26.005Z,13.15
2022-10-18T05:39:56.813Z,11.68
2022-10-18T05:42:25.436Z,14.10
2022-10-18T05:44:53.656Z,12.65
2022-10-18T05:47:21.860Z,13.05
2022-10-18T05:49:49.957Z,13.57
2022-10-18T05:52:18.654Z,12.68
2022-10-18T05:54:46.805Z,11.43
2022-10-18T05:57:15.189Z,12.90
2022-10-18T05:59:46.535Z,10.82
2022-10-18T06:02:15.778Z,11.23
2022-10-18T06:04:43.727Z,11.60
2022-10-18T06:07:15.067Z,10.02
2022-10-18T06:09:44.329Z,11.02
2022-10-18T06:12:12.097Z,11.98
2022-10-18T06:14:43.444Z,10.18
2022-10-18T06:17:15.642Z,11.32
2022-10-18T06:19:44.664Z,10.13
2022-10-18T06:22:15.098Z,11.15
2022-10-18T06:24:43.414Z,11.80
2022-10-18T06:27:11.393Z,11.27
2022-10-18T06:29:42.175Z,11.60
2022-10-18T06:32:11.604Z,13.07
2022-10-18T06:34:39.824Z,11.43
2022-10-18T06:37:08.269Z,10.90
2022-10-18T06:39:36.384Z,11.45
2022-10-18T06:42:05.540Z,10.63
2022-10-18T06:44:42.085Z,10.63
2022-10-18T06:47:10.282Z,10.80
2022-10-18T06:49:38.773Z,11.30
2022-10-18T06:52:07.585Z,9.77
2022-10-18T07:06:06.682Z,9.95
2022-10-18T07:08:37.102Z,9.73
2022-10-18T07:11:16.439Z,9.40
2022-10-18T07:13:46.242Z,8.45
2022-10-18T07:16:18.702Z,9.30
2022-10-18T07:18:52.110Z,8.52
2022-10-18T07:21:22.399Z,9.32
2022-10-18T07:23:50.602Z,9.02
2022-10-18T07:26:32.214Z,8.27
2022-10-18T07:29:11.840Z,7.93
2022-10-18T07:31:42.181Z,8.32
2022-10-18T07:34:12.845Z,7.15
2022-10-18T07:36:41.387Z,8.25
2022-10-18T07:39:10.125Z,7.80
2022-10-18T07:41:38.317Z,6.90
2022-10-18T07:44:08.022Z,7.40
2022-10-18T07:46:36.198Z,6.80
2022-10-18T07:49:04.338Z,6.47
2022-10-18T07:51:33.112Z,7.18
2022-10-18T07:54:01.045Z,6.18
2022-10-18T07:56:30.459Z,6.55
2022-10-18T07:58:58.542Z,6.53
2022-10-18T08:01:26.617Z,6.25
2022-10-18T08:03:54.853Z,6.82
2022-10-18T08:06:23.346Z,6.85
2022-10-18T08:08:52.350Z,7.28
2022-10-18T08:11:22.416Z,6.60
2022-10-18T08:13:53.301Z,6.20
2022-10-18T08:16:24.121Z,6.25
2022-10-18T08:18:53.506Z,5.82
2022-10-18T08:21:22.341Z,6.38
2022-10-18T08:23:55.278Z,6.68
2022-10-18T08:26:24.147Z,5.65
2022-10-18T08:28:58.250Z,5.38
2022-10-18T08:31:38.350Z,5.55
2022-10-18T08:34:27.837Z,6.10
2022-10-18T08:36:58.492Z,5.57
2022-10-18T08:39:27.179Z,6.00
2022-10-18T08:42:13.796Z,5.82
2022-10-18T08:44:51.011Z,5.30
2022-10-18T08:47:25.927Z,4.72
2022-10-18T08:50:15.333Z,4.75
2022-10-18T08:52:57.341Z,4.32
2022-10-18T08:55:29.292Z,4.90
2022-10-18T08:57:59.194Z,5.22
2022-10-18T09:00:29.293Z,5.40
2022-10-18T09:03:05.620Z,5.68
2022-10-18T09:06:04.459Z,4.85
2022-10-18T09:08:56.472Z,4.75
2022-10-18T09:11:46.344Z,3.90
2022-10-18T09:14:23.731Z,4.65
2022-10-18T09:17:30.773Z,4.40
2022-10-18T09:20:13.679Z,4.27
2022-10-18T09:23:10.733Z,4.25
2022-10-18T09:25:46.398Z,3.67
2022-10-18T09:28:14.426Z,3.65
2022-10-18T09:31:03.934Z,3.78
2022-10-18T09:33:40.676Z,4.00
2022-10-18T09:36:12.207Z,3.58
2022-10-18T09:38:52.072Z,3.92
2022-10-18T09:41:41.091Z,3.40
2022-10-18T09:44:39.138Z,4.70
2022-10-18T09:47:27.936Z,3.90
2022-10-18T09:50:04.356Z,3.40
2022-10-18T09:53:27.647Z,3.63
2022-10-18T09:56:06.618Z,3.40
2022-10-18T09:58:45.606Z,3.78
2022-10-18T10:01:22.830Z,3.55
2022-10-18T10:03:50.711Z,3.33
2022-10-18T10:06:29.910Z,3.22
2022-10-18T10:09:21.104Z,3.17
2022-10-18T10:11:50.452Z,3.67
2022-10-18T10:14:24.949Z,3.47
2022-10-18T10:16:54.945Z,3.08
2022-10-18T10:19:27.040Z,2.97
2022-10-18T10:22:11.140Z,5.30
2022-10-18T10:24:51.114Z,3.60
2022-10-18T10:27:21.444Z,4.00
2022-10-18T10:29:54.746Z,2.67
2022-10-18T10:32:24.148Z,4.15
2022-10-18T10:34:52.516Z,3.20
2022-10-18T10:37:34.445Z,4.82
2022-10-18T10:40:27.791Z,2.85
2022-10-18T10:43:18.061Z,3.35
2022-10-18T10:45:57.955Z,4.15
2022-10-18T10:48:39.953Z,3.58
2022-10-18T10:51:29.651Z,3.30
2022-10-18T10:54:01.987Z,3.00
2022-10-18T10:56:32.410Z,2.90
2022-10-18T10:59:21.095Z,3.30
2022-10-18T11:01:51.504Z,3.55
2022-10-18T11:04:42.731Z,3.50
2022-10-18T11:07:32.566Z,3.38
2022-10-18T11:10:07.996Z,3.65
2022-10-18T11:12:45.911Z,3.57
2022-10-18T11:15:38.378Z,3.72
2022-10-18T11:18:11.360Z,3.50
2022-10-18T11:20:52.651Z,3.83
2022-10-18T11:23:21.348Z,3.47
2022-10-18T11:26:14.785Z,4.00
2022-10-18T11:28:56.700Z,3.05
2022-10-18T11:31:27.959Z,3.05
2022-10-18T11:34:16.268Z,3.13
2022-10-18T11:37:26.476Z,3.28
2022-10-18T11:40:10.223Z,3.42
2022-10-18T11:43:06.470Z,3.28
2022-10-18T11:45:40.484Z,3.78
2022-10-18T11:48:39.133Z,3.45
2022-10-18T11:52:03.647Z,4.45
2022-10-18T11:54:50.699Z,3.90
2022-10-18T11:57:25.556Z,4.13
2022-10-18T12:00:01.073Z,4.35
2022-10-18T12:08:05.760Z,3.67
2022-10-18T12:10:52.669Z,3.85
2022-10-18T12:13:34.623Z,3.20
2022-10-18T12:16:09.842Z,3.22
2022-10-18T12:18:59.704Z,3.35
2022-10-18T12:21:31.822Z,3.63
2022-10-18T12:24:26.394Z,3.30
2022-10-18T12:27:00.906Z,3.25
2022-10-18T12:29:50.233Z,3.45
2022-10-18T12:32:28.642Z,3.05
2022-10-18T12:35:11.375Z,3.38
2022-10-18T12:38:00.229Z,3.25
2022-10-18T12:40:46.147Z,3.35
2022-10-18T12:43:23.841Z,3.65
2022-10-18T12:45:55.005Z,4.05
2022-10-18T12:48:31.298Z,4.00
2022-10-18T12:51:16.986Z,3.80
2022-10-18T12:53:46.221Z,4.00
2022-10-18T12:56:35.575Z,4.43
2022-10-18T12:59:16.549Z,4.28
2022-10-18T13:01:51.457Z,5.50
2022-10-18T13:04:29.031Z,6.20
2022-10-18T13:06:59.976Z,4.82
2022-10-18T13:09:35.967Z,6.47
2022-10-18T13:12:10.853Z,4.65
2022-10-18T13:14:53.398Z,4.70
2022-10-18T13:17:45.767Z,4.07
2022-10-18T13:20:32.517Z,5.05
2022-10-18T13:23:30.028Z,4.72
2022-10-18T13:26:17.941Z,5.28
2022-10-18T13:29:07.882Z,5.68
2022-10-18T13:31:46.011Z,4.25
2022-10-18T13:34:38.547Z,5.07
2022-10-18T13:37:09.552Z,4.47
2022-10-18T13:39:39.185Z,4.43
2022-10-18T13:42:30.224Z,5.55
2022-10-18T13:45:33.217Z,6.30
2022-10-18T13:48:30.987Z,5.93
2022-10-18T13:51:24.972Z,5.72
2022-10-18T13:54:14.850Z,7.65
2022-10-18T13:56:51.867Z,4.75
2022-10-18T13:59:51.858Z,8.45
2022-10-18T14:02:49.898Z,6.57
2022-10-18T14:05:32.062Z,6.85
2022-10-18T14:11:46.080Z,6.65
2022-10-18T14:14:19.124Z,5.97
2022-10-18T14:17:02.246Z,26.60
2022-10-18T14:19:44.569Z,7.68
2022-10-18T14:22:22.372Z,7.57
2022-10-18T14:24:54.176Z,7.45
2022-10-18T14:27:33.467Z,16.73
2022-10-18T14:30:20.112Z,16.52
2022-10-18T14:32:55.046Z,11.25
2022-10-18T14:35:33.182Z,10.55
2022-10-18T14:38:02.304Z,8.93
2022-10-18T14:40:35.646Z,9.07
2022-10-18T14:43:19.209Z,9.60
2022-10-18T14:45:47.444Z,10.98
2022-10-18T14:48:22.228Z,9.98
2022-10-18T14:50:59.863Z,11.00
2022-10-18T14:53:39.681Z,12.57
2022-10-18T14:56:08.717Z,13.05
2022-10-18T14:58:37.683Z,13.95
2022-10-18T15:01:06.252Z,16.83
2022-10-18T15:03:36.712Z,26.63
2022-10-18T15:06:05.964Z,24.85
2022-10-18T15:08:40.361Z,18.08
2022-10-18T15:11:14.101Z,16.23
2022-10-18T15:13:54.709Z,20.05
2022-10-18T15:16:25.301Z,13.90
2022-10-18T15:19:01.768Z,15.38
2022-10-18T15:21:34.109Z,15.15
2022-10-18T15:24:29.357Z,13.60
2022-10-18T15:27:00.222Z,13.68
2022-10-18T15:29:33.965Z,15.75
2022-10-18T15:32:16.322Z,14.77
2022-10-18T15:34:47.074Z,12.98
2022-10-18T15:37:24.962Z,11.63
2022-10-18T15:40:25.198Z,13.00
2022-10-18T15:42:57.461Z,13.93
2022-10-18T15:45:25.835Z,13.38
2022-10-18T15:47:59.334Z,12.90
2022-10-18T15:50:47.899Z,11.88
2022-10-18T15:53:22.872Z,13.35
2022-10-18T15:56:01.852Z,10.80
2022-10-18T15:58:41.543Z,14.95
2022-10-18T16:01:19.279Z,10.70
2022-10-18T16:06:18.116Z,9.95
2022-10-18T16:08:51.978Z,10.65
2022-10-18T16:11:23.689Z,11.18
2022-10-18T16:13:57.883Z,11.18
2022-10-18T16:16:30.348Z,9.23
2022-10-18T16:19:04.181Z,10.85
2022-10-18T16:21:40.423Z,10.00
2022-10-18T16:24:08.523Z,8.40
2022-10-18T16:26:46.429Z,8.93
2022-10-18T16:29:26.130Z,8.55
2022-10-18T16:31:58.174Z,8.02
2022-10-18T16:34:29.613Z,8.18
2022-10-18T16:36:57.525Z,7.00
2022-10-18T16:39:25.785Z,6.25
2022-10-18T16:41:54.242Z,6.00
2022-10-18T16:44:22.313Z,6.00
2022-10-18T16:46:53.975Z,5.97
2022-10-18T16:50:10.169Z,6.13
2022-10-18T16:52:39.940Z,7.07
2022-10-18T16:55:21.563Z,6.03
2022-10-18T16:57:50.447Z,6.20
2022-10-18T17:00:21.420Z,6.20
2022-10-18T17:03:09.497Z,6.80
2022-10-18T17:05:43.333Z,6.40
2022-10-18T17:08:19.551Z,8.20
2022-10-18T17:10:53.209Z,7.70
2022-10-18T17:13:27.830Z,7.10
2022-10-18T17:16:23.414Z,5.72
2022-10-18T17:18:59.418Z,7.45
2022-10-18T17:21:47.704Z,6.35
2022-10-18T17:24:16.396Z,6.93
2022-10-18T17:26:50.532Z,8.30
2022-10-18T17:29:42.153Z,8.02
2022-10-18T17:32:10.345Z,9.25
2022-10-18T17:34:39.165Z,9.20
2022-10-18T17:37:08.366Z,9.00
2022-10-18T17:39:38.635Z,7.82
2022-10-18T17:42:08.277Z,8.23
2022-10-18T17:44:42.597Z,8.00
2022-10-18T17:47:11.077Z,8.88
2022-10-18T17:49:40.018Z,10.07
2022-10-18T17:52:10.601Z,9.15
2022-10-18T17:55:05.736Z,9.20
2022-10-18T17:57:35.808Z,9.93
2022-10-18T18:09:18.208Z,11.15
2022-10-18T18:11:55.747Z,12.10
2022-10-18T18:14:44.311Z,11.68
2022-10-18T18:17:28.567Z,10.07
2022-10-18T18:24:44.417Z,7.85
2022-10-18T18:27:21.558Z,7.57
2022-10-18T18:39:10.367Z,6.70
2022-10-18T18:41:40.840Z,6.80
2022-10-18T18:44:10.110Z,6.53
2022-10-18T18:46:39.115Z,7.10
2022-10-18T18:49:14.130Z,7.28
2022-10-18T18:51:48.623Z,7.13
2022-10-18T18:54:17.719Z,6.93
2022-10-18T18:56:47.753Z,6.55
2022-10-18T18:59:17.609Z,5.65
2022-10-18T19:01:48.462Z,6.13
2022-10-18T19:04:19.427Z,5.97
2022-10-18T19:06:59.063Z,6.32
2022-10-18T19:09:51.117Z,6.18
2022-10-18T19:12:48.011Z,7.95
2022-10-18T19:15:24.491Z,7.55
2022-10-18T19:23:03.024Z,7.82
2022-10-18T19:25:30.910Z,7.60
2022-10-18T19:27:58.957Z,8.05
2022-10-18T19:30:28.083Z,6.90
2022-10-18T19:33:01.217Z,7.45
2022-10-18T19:35:32.923Z,6.22
2022-10-18T19:38:00.701Z,6.97
2022-10-18T19:40:29.043Z,6.10
2022-10-18T19:42:57.705Z,6.45
2022-10-18T19:45:31.982Z,5.57
2022-10-18T19:48:00.470Z,6.13
2022-10-18T19:50:28.942Z,6.50
2022-10-18T19:52:57.558Z,5.82
2022-10-18T19:55:29.853Z,6.07
2022-10-18T19:57:59.540Z,6.32
2022-10-18T20:00:27.363Z,7.03
2022-10-18T20:02:55.683Z,7.07
2022-10-18T20:05:24.350Z,6.60
2022-10-18T20:07:52.840Z,7.07
2022-10-18T20:10:26.572Z,7.25
2022-10-18T20:12:55.855Z,6.60
2022-10-18T20:15:23.706Z,6.63
2022-10-18T20:17:55.804Z,6.78
2022-10-18T20:20:23.953Z,6.28
2022-10-18T20:22:51.844Z,5.63
2022-10-18T20:25:19.802Z,5.50
2022-10-18T20:27:48.111Z,6.82
2022-10-18T20:30:16.011Z,5.25
2022-10-18T20:32:45.029Z,4.70
2022-10-18T20:35:13.379Z,5.32
2022-10-18T20:37:41.208Z,5.13
2022-10-18T20:40:14.013Z,4.75
2022-10-18T20:42:43.243Z,4.97
2022-10-18T20:45:11.649Z,5.05
2022-10-18T20:47:39.560Z,5.03
2022-10-18T20:50:08.152Z,5.32
2022-10-18T20:52:36.485Z,4.63
2022-10-18T20:55:04.810Z,4.80
2022-10-18T20:57:35.714Z,5.35
2022-10-18T21:00:06.246Z,4.45
2022-10-18T21:02:34.531Z,5.40
2022-10-18T21:05:02.335Z,5.22
2022-10-18T21:07:30.981Z,5.45
2022-10-18T21:09:59.529Z,6.05
2022-10-18T21:12:28.897Z,5.35
2022-10-18T21:14:57.640Z,5.18
2022-10-18T21:17:26.052Z,5.10
2022-10-18T21:19:54.417Z,5.65
2022-10-18T21:22:22.456Z,5.68
2022-10-18T21:24:53.403Z,5.38
2022-10-18T21:27:22.062Z,5.90
2022-10-18T21:29:51.268Z,5.50
2022-10-18T21:32:19.193Z,5.45
2022-10-18T21:34:47.202Z,5.63
2022-10-18T21:37:15.621Z,6.13
2022-10-18T21:39:43.838Z,6.05
2022-10-18T21:42:12.425Z,5.78
2022-10-18T21:44:40.372Z,5.70
2022-10-18T21:47:11.633Z,6.60
2022-10-18T21:49:39.483Z,8.20
2022-10-18T21:52:07.225Z,6.78
2022-10-18T21:54:35.211Z,6.47
2022-10-18T21:57:03.019Z,6.55
2022-10-18T21:59:32.070Z,6.13
2022-10-18T22:02:03.031Z,5.97
2022-10-18T22:04:35.900Z,5.43
2022-10-18T22:07:04.755Z,5.85
2022-10-18T22:09:32.927Z,6.10
2022-10-18T22:12:00.756Z,5.50
2022-10-18T22:14:29.006Z,5.40
2022-10-18T22:16:56.808Z,5.88
2022-10-18T22:19:25.076Z,5.65
2022-10-18T22:21:53.184Z,5.25
2022-10-18T22:24:21.248Z,5.75
2022-10-18T22:26:50.106Z,6.13
2022-10-18T22:29:19.796Z,4.97
2022-10-18T22:31:51.790Z,4.97
2022-10-18T22:34:21.548Z,5.55
2022-10-18T22:36:49.439Z,5.50
2022-10-18T22:39:17.412Z,4.40
2022-10-18T22:41:46.831Z,4.78
2022-10-18T22:44:15.175Z,4.75
2022-10-18T22:46:43.141Z,4.35
2022-10-18T22:49:12.258Z,4.55
2022-10-18T22:51:40.706Z,5.50
2022-10-18T22:54:08.669Z,5.15
2022-10-18T22:56:36.570Z,4.72
2022-10-18T22:59:04.364Z,4.75
2022-10-18T23:01:33.656Z,5.43
2022-10-18T23:04:01.858Z,5.40
2022-10-18T23:06:32.629Z,4.30
2022-10-18T23:09:01.969Z,4.40
2022-10-18T23:11:30.504Z,4.88
2022-10-18T23:13:58.752Z,4.38
2022-10-18T23:16:27.210Z,4.63
2022-10-18T23:18:58.265Z,4.68
2022-10-18T23:21:28.145Z,5.50
2022-10-18T23:23:56.098Z,5.45
2022-10-18T23:26:25.967Z,4.65
2022-10-18T23:28:54.339Z,5.85
2022-10-18T23:31:30.087Z,4.80
2022-10-18T23:34:00.157Z,5.13
2022-10-18T23:36:28.349Z,5.07
2022-10-18T23:38:56.557Z,4.70
2022-10-18T23:41:25.621Z,4.70
2022-10-18T23:43:55.970Z,4.97
2022-10-18T23:46:24.089Z,5.22
2022-10-18T23:48:51.775Z,4.97
2022-10-18T23:51:19.814Z,5.47
2022-10-18T23:53:48.717Z,5.55
2022-10-18T23:56:16.853Z,5.18
2022-10-18T23:58:45.375Z,5.05
